createdAt,value
2023-02-08T00:01:15.254Z,101649.27
2023-02-08T00:03:43.993Z,101647.48
2023-02-08T00:06:13.121Z,101652.55
2023-02-08T00:08:41.445Z,101656.56
2023-02-08T00:11:13.135Z,101660.17
2023-02-08T00:13:42.278Z,101657.55
2023-02-08T00:16:12.769Z,101656.34
2023-02-08T00:18:41.589Z,101657.30
2023-02-08T00:21:11.876Z,101657.33
2023-02-08T00:23:40.483Z,101658.24
2023-02-08T00:26:09.206Z,101661.05
2023-02-08T00:28:37.183Z,101665.45
2023-02-08T00:31:06.148Z,101667.79
2023-02-08T00:33:35.892Z,101675.27
2023-02-08T00:36:06.732Z,101676.90
2023-02-08T00:38:35.473Z,101676.86
2023-02-08T00:41:03.568Z,101673.48
2023-02-08T00:43:31.760Z,101670.64
2023-02-08T00:46:00.745Z,101665.84
2023-02-08T00:48:29.201Z,101662.23
2023-02-08T00:51:02.279Z,101661.13
2023-02-08T00:53:30.273Z,101657.09
2023-02-08T00:55:58.214Z,101661.45
2023-02-08T00:58:26.853Z,101664.10
2023-02-08T01:00:55.197Z,101667.38
2023-02-08T01:03:23.980Z,101670.27
2023-02-08T01:05:52.559Z,101678.23
2023-02-08T01:08:22.082Z,101678.77
2023-02-08T01:10:50.180Z,101681.88
2023-02-08T01:13:18.279Z,101676.55
2023-02-08T01:15:46.230Z,101672.76
2023-02-08T01:18:14.142Z,101665.42
2023-02-08T01:20:42.896Z,101665.67
2023-02-08T01:23:10.833Z,101666.83
2023-02-08T01:25:39.486Z,101668.02
2023-02-08T01:28:07.370Z,101668.79
2023-02-08T01:30:35.313Z,101662.14
2023-02-08T01:33:03.233Z,101659.29
2023-02-08T01:35:31.094Z,101652.11
2023-02-08T01:37:58.950Z,101653.55
2023-02-08T01:40:26.831Z,101655.58
2023-02-08T01:42:54.656Z,101658.98
2023-02-08T01:45:29.987Z,101653.70
2023-02-08T01:48:10.621Z,101652.16
2023-02-08T01:51:09.357Z,101649.77
2023-02-08T01:53:39.991Z,101653.42
2023-02-08T01:56:12.707Z,101654.43
2023-02-08T01:58:45.389Z,101652.48
2023-02-08T02:01:14.471Z,101654.10
2023-02-08T02:03:43.187Z,101655.03
2023-02-08T02:06:15.410Z,101654.42
2023-02-08T02:08:55.918Z,101652.56
2023-02-08T02:11:24.563Z,101655.77
2023-02-08T02:13:54.834Z,101656.45
2023-02-08T02:16:22.823Z,101652.71
2023-02-08T02:18:52.299Z,101650.39
2023-02-08T02:21:52.100Z,101653.37
2023-02-08T02:24:28.784Z,101655.91
2023-02-08T02:27:15.139Z,101658.84
2023-02-08T02:30:14.090Z,101657.39
2023-02-08T02:32:58.041Z,101656.23
2023-02-08T02:35:39.438Z,101654.86
2023-02-08T02:38:12.537Z,101653.08
2023-02-08T02:40:51.576Z,101654.66
2023-02-08T02:43:38.083Z,101650.45
2023-02-08T02:46:14.905Z,101651.99
2023-02-08T02:49:04.204Z,101649.57
2023-02-08T02:51:41.303Z,101650.31
2023-02-08T02:54:24.496Z,101654.95
2023-02-08T02:56:56.569Z,101654.92
2023-02-08T02:59:25.559Z,101655.77
2023-02-08T03:01:55.150Z,101654.52
2023-02-08T03:04:32.388Z,101651.80
2023-02-08T03:07:14.356Z,101653.98
2023-02-08T03:10:04.632Z,101659.04
2023-02-08T03:12:57.887Z,101666.45
2023-02-08T03:15:40.081Z,101670.15
2023-02-08T03:18:36.359Z,101669.90
2023-02-08T03:21:13.142Z,101672.30
2023-02-08T03:23:59.408Z,101671.42
2023-02-08T03:26:36.200Z,101675.82
2023-02-08T03:29:15.617Z,101675.94
2023-02-08T03:32:01.002Z,101681.12
2023-02-08T03:34:51.148Z,101680.08
2023-02-08T03:37:33.048Z,101679.85
2023-02-08T03:40:12.852Z,101678.33
2023-02-08T03:42:41.357Z,101677.93
2023-02-08T03:45:40.450Z,101679.23
2023-02-08T03:48:11.503Z,101677.34
2023-02-08T03:50:41.082Z,101679.19
2023-02-08T03:53:10.760Z,101674.23
2023-02-08T03:55:42.035Z,101675.94
2023-02-08T03:58:39.016Z,101678.27
2023-02-08T04:01:36.902Z,101679.05
2023-02-08T04:04:05.354Z,101678.23
2023-02-08T04:06:33.457Z,101684.93
2023-02-08T04:09:01.354Z,101683.98
2023-02-08T04:11:29.333Z,101683.73
2023-02-08T04:13:57.178Z,101684.94
2023-02-08T04:16:25.066Z,101686.73
2023-02-08T04:18:52.992Z,101685.52
2023-02-08T04:21:20.894Z,101682.69
2023-02-08T04:23:48.760Z,101683.01
2023-02-08T04:26:16.665Z,101679.46
2023-02-08T04:28:44.945Z,101677.19
2023-02-08T04:31:12.975Z,101674.27
2023-02-08T04:33:41.421Z,101672.94
2023-02-08T04:36:09.582Z,101672.23
2023-02-08T04:38:37.568Z,101673.80
2023-02-08T04:41:05.590Z,101677.88
2023-02-08T04:43:33.534Z,101677.79
2023-02-08T04:46:01.929Z,101678.15
2023-02-08T04:48:30.113Z,101679.33
2023-02-08T04:50:58.658Z,101682.82
2023-02-08T04:53:26.902Z,101683.98
2023-02-08T04:55:54.823Z,101682.14
2023-02-08T04:58:23.234Z,101681.33
2023-02-08T05:00:51.249Z,101678.31
2023-02-08T05:03:19.556Z,101675.77
2023-02-08T05:05:47.389Z,101674.93
2023-02-08T05:08:15.290Z,101675.76
2023-02-08T05:10:46.218Z,101679.38
2023-02-08T05:13:14.104Z,101684.77
2023-02-08T05:15:42.216Z,101684.88
2023-02-08T05:18:10.262Z,101689.52
2023-02-08T05:20:38.238Z,101690.06
2023-02-08T05:23:06.297Z,101692.50
2023-02-08T05:25:34.269Z,101696.55
2023-02-08T05:28:03.123Z,101696.98
2023-02-08T05:30:31.612Z,101699.48
2023-02-08T05:32:59.632Z,101698.16
2023-02-08T05:35:27.502Z,101697.09
2023-02-08T05:37:55.360Z,101695.71
2023-02-08T05:40:23.273Z,101688.29
2023-02-08T05:42:51.181Z,101686.89
2023-02-08T05:45:19.091Z,101688.70
2023-02-08T05:47:49.551Z,101695.55
2023-02-08T05:50:17.477Z,101699.97
2023-02-08T05:52:45.442Z,101698.37
2023-02-08T05:55:13.323Z,101697.78
2023-02-08T05:57:41.213Z,101698.77
2023-02-08T06:00:09.997Z,101700.70
2023-02-08T06:02:44.069Z,101703.19
2023-02-08T06:05:12.051Z,101708.27
2023-02-08T06:07:39.853Z,101710.37
2023-02-08T06:10:11.090Z,101711.70
2023-02-08T06:12:39.302Z,101707.66
2023-02-08T06:15:07.628Z,101708.14
2023-02-08T06:17:35.501Z,101705.52
2023-02-08T06:20:04.470Z,101705.67
2023-02-08T06:22:34.972Z,101705.91
2023-02-08T06:25:03.466Z,101708.85
2023-02-08T06:27:31.491Z,101707.73
2023-02-08T06:29:59.432Z,101709.67
2023-02-08T06:32:27.573Z,101708.48
2023-02-08T06:34:55.793Z,101705.93
2023-02-08T06:37:23.819Z,101706.24
2023-02-08T06:39:51.684Z,101705.55
2023-02-08T06:42:19.592Z,101704.02
2023-02-08T06:44:55.193Z,101701.88
2023-02-08T06:47:24.927Z,101702.06
2023-02-08T06:49:53.271Z,101708.46
2023-02-08T06:52:21.656Z,101710.20
2023-02-08T06:54:49.567Z,101715.35
2023-02-08T06:57:17.495Z,101712.42
2023-02-08T06:59:45.663Z,101714.63
2023-02-08T07:02:16.138Z,101717.48
2023-02-08T07:04:45.403Z,101715.70
2023-02-08T07:07:14.144Z,101712.79
2023-02-08T07:09:42.829Z,101714.72
2023-02-08T07:12:11.124Z,101716.25
2023-02-08T07:14:41.791Z,101722.04
2023-02-08T07:17:11.139Z,101729.98
2023-02-08T07:19:39.433Z,101735.10
2023-02-08T07:22:10.735Z,101737.67
2023-02-08T07:24:41.191Z,101735.59
2023-02-08T07:27:11.317Z,101742.23
2023-02-08T07:29:39.957Z,101746.09
2023-02-08T07:32:08.541Z,101748.55
2023-02-08T07:34:38.041Z,101750.01
2023-02-08T07:37:06.913Z,101752.16
2023-02-08T07:39:34.927Z,101754.16
2023-02-08T07:42:03.023Z,101756.52
2023-02-08T07:44:32.681Z,101763.64
2023-02-08T07:47:02.042Z,101765.25
2023-02-08T07:49:30.400Z,101769.30
2023-02-08T07:52:02.148Z,101771.88
2023-02-08T07:54:30.126Z,101773.45
2023-02-08T07:56:58.033Z,101768.52
2023-02-08T07:59:25.924Z,101772.09
2023-02-08T08:01:53.788Z,101777.04
2023-02-08T08:04:22.145Z,101779.10
2023-02-08T08:06:51.509Z,101778.63
2023-02-08T08:09:20.407Z,101782.23
2023-02-08T08:11:48.306Z,101780.33
2023-02-08T08:14:16.264Z,101778.96
2023-02-08T08:16:44.355Z,101781.77
2023-02-08T08:19:12.231Z,101783.45
2023-02-08T08:21:40.574Z,101783.84
2023-02-08T08:24:08.548Z,101786.23
2023-02-08T08:26:36.522Z,101787.63
2023-02-08T08:29:05.025Z,101788.27
2023-02-08T08:31:33.067Z,101789.54
2023-02-08T08:34:01.011Z,101790.73
2023-02-08T08:36:29.154Z,101788.68
2023-02-08T08:38:57.104Z,101790.16
2023-02-08T08:41:27.282Z,101786.94
2023-02-08T08:43:55.198Z,101789.46
2023-02-08T08:46:23.265Z,101786.04
2023-02-08T08:48:52.086Z,101787.01
2023-02-08T08:51:20.115Z,101789.46
2023-02-08T08:53:48.034Z,101787.20
2023-02-08T08:56:16.204Z,101781.27
2023-02-08T08:58:44.243Z,101777.93
2023-02-08T09:01:13.979Z,101779.30
2023-02-08T09:03:42.061Z,101774.92
2023-02-08T09:06:10.155Z,101777.05
2023-02-08T09:08:38.701Z,101779.42
2023-02-08T09:11:12.568Z,101787.77
2023-02-08T09:13:41.339Z,101787.15
2023-02-08T09:16:14.078Z,101788.45
2023-02-08T09:18:42.577Z,101785.59
2023-02-08T09:21:16.797Z,101778.39
2023-02-08T09:23:47.537Z,101774.95
2023-02-08T09:26:17.944Z,101780.76
2023-02-08T09:28:46.504Z,101782.89
2023-02-08T09:31:25.231Z,101781.38
2023-02-08T09:33:55.763Z,101782.69
2023-02-08T09:36:25.530Z,101787.71
2023-02-08T09:39:00.774Z,101786.30
2023-02-08T09:41:54.712Z,101789.00
2023-02-08T09:44:41.665Z,101791.33
2023-02-08T09:47:36.126Z,101789.22
2023-02-08T09:50:20.375Z,101785.52
2023-02-08T09:53:13.024Z,101780.14
2023-02-08T09:55:50.231Z,101780.27
2023-02-08T09:58:26.419Z,101779.27
2023-02-08T10:00:55.415Z,101780.91
2023-02-08T10:03:39.357Z,101780.69
2023-02-08T10:06:09.937Z,101780.95
2023-02-08T10:08:39.660Z,101774.48
2023-02-08T10:11:10.309Z,101774.12
2023-02-08T10:13:53.148Z,101776.20
2023-02-08T10:16:43.776Z,101774.37
2023-02-08T10:19:43.193Z,101768.55
2023-02-08T10:22:38.645Z,101767.57
2023-02-08T10:25:23.789Z,101767.97
2023-02-08T10:28:16.654Z,101766.36
2023-02-08T10:31:17.496Z,101762.38
2023-02-08T10:33:59.575Z,101761.64
2023-02-08T10:36:32.103Z,101764.76
2023-02-08T10:39:02.678Z,101755.73
2023-02-08T10:41:36.714Z,101751.74
2023-02-08T10:44:43.545Z,101746.27
2023-02-08T10:47:23.864Z,101747.58
2023-02-08T10:50:02.827Z,101745.91
2023-02-08T10:52:31.079Z,101740.54
2023-02-08T10:54:59.214Z,101732.05
2023-02-08T10:57:34.306Z,101729.79
2023-02-08T11:00:05.741Z,101731.49
2023-02-08T11:02:38.800Z,101728.02
2023-02-08T11:05:11.066Z,101724.27
2023-02-08T11:07:39.490Z,101725.07
2023-02-08T11:10:16.689Z,101717.05
2023-02-08T11:12:57.441Z,101707.90
2023-02-08T11:15:29.840Z,101700.27
2023-02-08T11:18:01.332Z,101704.00
2023-02-08T11:20:36.777Z,101698.30
2023-02-08T11:23:26.951Z,101695.80
2023-02-08T11:26:12.598Z,101695.61
2023-02-08T11:28:41.728Z,101692.40
2023-02-08T11:31:20.883Z,101690.66
2023-02-08T11:34:11.519Z,101680.54
2023-02-08T11:36:47.300Z,101682.16
2023-02-08T11:39:27.318Z,101677.89
2023-02-08T11:42:00.767Z,101679.06
2023-02-08T11:44:43.223Z,101676.67
2023-02-08T11:47:16.540Z,101668.20
2023-02-08T11:49:55.200Z,101673.02
2023-02-08T11:52:27.743Z,101672.74
2023-02-08T11:55:13.224Z,101674.69
2023-02-08T11:58:17.758Z,101668.64
2023-02-08T12:00:58.024Z,101663.64
2023-02-08T12:03:31.295Z,101657.17
2023-02-08T12:06:26.389Z,101653.44
2023-02-08T12:09:12.328Z,101653.63
2023-02-08T12:11:50.304Z,101658.70
2023-02-08T12:14:40.055Z,101655.23
2023-02-08T12:17:34.166Z,101653.55
2023-02-08T12:20:05.065Z,101654.27
2023-02-08T12:22:39.557Z,101651.12
2023-02-08T12:25:16.557Z,101650.70
2023-02-08T12:28:09.630Z,101645.54
2023-02-08T12:30:53.825Z,101649.33
2023-02-08T12:33:37.760Z,101648.36
2023-02-08T12:36:05.893Z,101645.22
2023-02-08T12:39:19.950Z,101642.91
2023-02-08T12:42:26.741Z,101641.27
2023-02-08T12:45:15.323Z,101643.68
2023-02-08T12:48:04.426Z,101638.45
2023-02-08T12:50:46.260Z,101633.27
2023-02-08T12:53:44.837Z,101626.95
2023-02-08T12:56:18.888Z,101624.66
2023-02-08T12:58:50.264Z,101621.02
2023-02-08T13:01:24.463Z,101617.14
2023-02-08T13:04:15.603Z,101615.89
2023-02-08T13:06:58.150Z,101618.70
2023-02-08T13:09:59.833Z,101617.83
2023-02-08T13:12:33.099Z,101611.16
2023-02-08T13:15:28.407Z,101610.63
2023-02-08T13:18:01.373Z,101608.73
2023-02-08T13:20:40.781Z,101604.75
2023-02-08T13:23:30.474Z,101603.67
2023-02-08T13:26:03.306Z,101604.00
2023-02-08T13:28:31.261Z,101605.23
2023-02-08T13:31:13.436Z,101603.27
2023-02-08T13:34:00.776Z,101601.65
2023-02-08T13:36:37.919Z,101600.18
2023-02-08T13:39:09.560Z,101599.60
2023-02-08T13:41:37.747Z,101601.48
2023-02-08T13:44:08.463Z,101607.14
2023-02-08T13:46:45.137Z,101604.69
2023-02-08T13:49:43.226Z,101602.10
2023-02-08T13:52:12.789Z,101604.02
2023-02-08T13:54:40.662Z,101601.16
2023-02-08T13:57:53.843Z,101599.55
2023-02-08T14:00:28.790Z,101598.90
2023-02-08T14:03:01.044Z,101597.64
2023-02-08T14:05:47.347Z,101597.40
2023-02-08T14:08:42.151Z,101600.49
2023-02-08T14:11:39.026Z,101597.13
2023-02-08T14:14:20.787Z,101597.68
2023-02-08T14:17:03.814Z,101593.14
2023-02-08T14:19:36.688Z,101593.15
2023-02-08T14:22:08.410Z,101592.64
2023-02-08T14:24:48.150Z,101594.70
2023-02-08T14:27:28.610Z,101590.77
2023-02-08T14:30:33.512Z,101581.83
2023-02-08T14:33:04.242Z,101580.71
2023-02-08T14:35:36.767Z,101583.48
2023-02-08T14:38:19.878Z,101585.16
2023-02-08T14:40:54.805Z,101582.17
2023-02-08T14:43:37.846Z,101583.20
2023-02-08T14:46:43.614Z,101577.00
2023-02-08T14:49:19.273Z,101575.31
2023-02-08T14:51:54.119Z,101574.16
2023-02-08T14:54:32.676Z,101569.50
2023-02-08T14:57:04.892Z,101572.83
2023-02-08T14:59:34.941Z,101574.15
2023-02-08T15:02:15.437Z,101570.05
2023-02-08T15:04:45.460Z,101570.23
2023-02-08T15:07:30.063Z,101575.86
2023-02-08T15:10:04.117Z,101579.03
2023-02-08T15:12:41.199Z,101578.09
2023-02-08T15:15:32.745Z,101574.11
2023-02-08T15:18:02.283Z,101575.80
2023-02-08T15:20:33.710Z,101575.85
2023-02-08T15:23:20.331Z,101577.48
2023-02-08T15:26:22.370Z,101577.13
2023-02-08T15:28:50.259Z,101581.63
2023-02-08T15:31:21.852Z,101581.64
2023-02-08T15:33:52.316Z,101585.48
2023-02-08T15:36:30.203Z,101585.68
2023-02-08T15:39:01.058Z,101588.50
2023-02-08T15:41:32.270Z,101590.59
2023-02-08T15:44:03.251Z,101592.34
2023-02-08T15:46:32.123Z,101592.20
2023-02-08T15:49:00.422Z,101588.58
2023-02-08T15:51:29.246Z,101589.59
2023-02-08T15:53:57.453Z,101588.55
2023-02-08T15:56:38.709Z,101585.92
2023-02-08T15:59:18.552Z,101583.48
2023-02-08T16:01:47.809Z,101582.23
2023-02-08T16:04:16.133Z,101583.89
2023-02-08T16:06:57.002Z,101583.73
2023-02-08T16:09:29.793Z,101580.92
2023-02-08T16:12:00.564Z,101581.79
2023-02-08T16:14:30.853Z,101580.39
2023-02-08T16:17:00.141Z,101577.05
2023-02-08T16:19:33.936Z,101575.25
2023-02-08T16:22:32.748Z,101573.31
2023-02-08T16:25:25.556Z,101571.73
2023-02-08T16:27:53.657Z,101573.44
2023-02-08T16:30:22.872Z,101573.09
2023-02-08T16:32:50.969Z,101567.77
2023-02-08T16:35:29.570Z,101568.11
2023-02-08T16:38:00.595Z,101571.85
2023-02-08T16:40:51.757Z,101571.63
2023-02-08T16:43:31.731Z,101571.84
2023-02-08T16:46:25.353Z,101571.66
2023-02-08T16:48:55.880Z,101573.78
2023-02-08T16:51:27.345Z,101576.58
2023-02-08T16:54:00.657Z,101575.58
2023-02-08T16:56:29.124Z,101580.48
2023-02-08T16:58:56.999Z,101579.48
2023-02-08T17:01:26.353Z,101572.96
2023-02-08T17:03:54.684Z,101576.33
2023-02-08T17:06:32.346Z,101573.25
2023-02-08T17:09:02.000Z,101574.01
2023-02-08T17:11:30.390Z,101574.83
2023-02-08T17:13:58.811Z,101571.92
2023-02-08T17:16:31.921Z,101570.03
2023-02-08T17:19:03.706Z,101573.16
2023-02-08T17:21:31.642Z,101570.98
2023-02-08T17:23:59.994Z,101573.11
2023-02-08T17:26:32.250Z,101573.70
2023-02-08T17:29:00.367Z,101576.02
2023-02-08T17:31:31.171Z,101576.39
2023-02-08T17:34:04.384Z,101578.38
2023-02-08T17:36:35.128Z,101578.09
2023-02-08T17:39:05.407Z,101575.05
2023-02-08T17:41:33.469Z,101576.16
2023-02-08T17:44:01.595Z,101579.49
2023-02-08T17:46:32.877Z,101580.55
2023-02-08T17:49:01.756Z,101583.58
2023-02-08T17:51:30.432Z,101584.25
2023-02-08T17:53:58.866Z,101584.14
2023-02-08T17:56:28.597Z,101581.10
2023-02-08T17:58:56.636Z,101580.36
2023-02-08T18:01:27.167Z,101583.29
2023-02-08T18:03:55.253Z,101581.48
2023-02-08T18:06:25.013Z,101582.98
2023-02-08T18:08:54.817Z,101581.60
2023-02-08T18:11:24.008Z,101582.81
2023-02-08T18:13:53.910Z,101573.88
2023-02-08T18:16:25.316Z,101567.94
2023-02-08T18:19:01.228Z,101565.09
2023-02-08T18:21:33.520Z,101563.98
2023-02-08T18:24:03.179Z,101561.15
2023-02-08T18:26:34.391Z,101559.00
2023-02-08T18:29:02.864Z,101557.88
2023-02-08T18:31:31.786Z,101552.92
2023-02-08T18:34:00.226Z,101552.26
2023-02-08T18:36:28.120Z,101550.50
2023-02-08T18:38:56.979Z,101544.90
2023-02-08T18:41:27.062Z,101541.20
2023-02-08T18:43:57.240Z,101534.21
2023-02-08T18:46:26.825Z,101532.21
2023-02-08T18:48:55.426Z,101526.63
2023-02-08T18:51:24.737Z,101524.14
2023-02-08T18:53:55.305Z,101523.53
2023-02-08T18:56:25.303Z,101521.59
2023-02-08T18:58:54.899Z,101518.13
2023-02-08T19:01:24.592Z,101513.09
2023-02-08T19:03:53.480Z,101510.74
2023-02-08T19:06:25.065Z,101510.92
2023-02-08T19:08:55.765Z,101508.98
2023-02-08T19:11:34.114Z,101504.98
2023-02-08T19:14:04.621Z,101503.05
2023-02-08T19:16:35.245Z,101504.59
2023-02-08T19:19:05.427Z,101506.05
2023-02-08T19:21:34.199Z,101503.58
2023-02-08T19:24:05.180Z,101500.27
2023-02-08T19:26:36.951Z,101502.52
2023-02-08T19:29:07.349Z,101506.66
2023-02-08T19:31:35.633Z,101504.48
2023-02-08T19:34:04.741Z,101507.39
2023-02-08T19:36:38.214Z,101504.92
2023-02-08T19:39:07.360Z,101499.70
2023-02-08T19:41:39.482Z,101497.13
2023-02-08T19:44:09.540Z,101497.25
2023-02-08T19:46:40.366Z,101500.96
2023-02-08T19:49:08.343Z,101503.48
2023-02-08T19:51:37.145Z,101503.10
2023-02-08T19:54:08.508Z,101505.02
2023-02-08T19:56:37.310Z,101507.08
2023-02-08T19:59:07.513Z,101507.95
2023-02-08T20:01:36.228Z,101508.41
2023-02-08T20:04:05.752Z,101515.38
2023-02-08T20:06:38.770Z,101517.02
2023-02-08T20:09:07.922Z,101509.95
2023-02-08T20:11:51.228Z,101504.27
2023-02-08T20:14:31.245Z,101501.41
2023-02-08T20:17:00.498Z,101503.57
2023-02-08T20:19:29.242Z,101506.03
2023-02-08T20:21:57.147Z,101506.97
2023-02-08T20:24:25.360Z,101501.72
2023-02-08T20:26:53.400Z,101495.39
2023-02-08T20:29:21.461Z,101490.20
2023-02-08T20:31:53.583Z,101489.24
2023-02-08T20:34:21.669Z,101487.38
2023-02-08T20:37:05.842Z,101486.94
2023-02-08T20:39:38.799Z,101486.60
2023-02-08T20:42:06.773Z,101486.98
2023-02-08T20:44:34.764Z,101487.64
2023-02-08T20:47:02.656Z,101488.47
2023-02-08T20:49:32.281Z,101483.34
2023-02-08T20:52:00.644Z,101479.80
2023-02-08T20:54:28.761Z,101475.77
2023-02-08T20:56:57.695Z,101473.08
2023-02-08T20:59:25.839Z,101474.44
2023-02-08T21:01:54.192Z,101473.30
2023-02-08T21:04:26.360Z,101471.82
2023-02-08T21:06:54.201Z,101467.96
2023-02-08T21:09:22.200Z,101464.13
2023-02-08T21:11:51.182Z,101464.30
2023-02-08T21:14:21.406Z,101462.22
2023-02-08T21:16:56.283Z,101459.45
2023-02-08T21:19:28.027Z,101463.83
2023-02-08T21:21:59.824Z,101467.27
2023-02-08T21:24:28.433Z,101461.73
2023-02-08T21:26:57.196Z,101458.79
2023-02-08T21:29:25.740Z,101449.63
2023-02-08T21:31:54.684Z,101445.98
2023-02-08T21:34:23.131Z,101443.33
2023-02-08T21:36:51.187Z,101441.52
2023-02-08T21:39:19.203Z,101433.38
2023-02-08T21:41:48.244Z,101430.20
2023-02-08T21:44:16.235Z,101429.32
2023-02-08T21:46:44.232Z,101429.39
2023-02-08T21:49:30.630Z,101433.41
2023-02-08T21:52:16.901Z,101432.09
2023-02-08T21:54:45.754Z,101430.94
2023-02-08T21:57:15.161Z,101432.73
2023-02-08T21:59:43.582Z,101428.63
2023-02-08T22:02:24.635Z,101428.16
2023-02-08T22:05:12.753Z,101427.23
2023-02-08T22:07:44.535Z,101417.77
2023-02-08T22:10:14.172Z,101412.90
2023-02-08T22:12:42.439Z,101407.75
2023-02-08T22:15:16.436Z,101403.56
2023-02-08T22:17:45.228Z,101400.40
2023-02-08T22:20:15.154Z,101391.77
2023-02-08T22:22:43.094Z,101381.05
2023-02-08T22:25:11.432Z,101383.79
2023-02-08T22:27:39.372Z,101388.14
2023-02-08T22:30:10.263Z,101389.36
2023-02-08T22:32:42.816Z,101381.95
2023-02-08T22:35:11.812Z,101379.14
2023-02-08T22:37:39.877Z,101377.20
2023-02-08T22:40:10.919Z,101374.77
2023-02-08T22:42:40.386Z,101373.27
2023-02-08T22:45:08.977Z,101369.80
2023-02-08T22:47:37.502Z,101367.52
2023-02-08T22:50:07.174Z,101369.52
2023-02-08T22:52:35.280Z,101366.82
2023-02-08T22:55:04.333Z,101363.84
2023-02-08T22:57:33.662Z,101361.84
2023-02-08T23:00:02.277Z,101359.00
2023-02-08T23:02:30.516Z,101353.21
2023-02-08T23:04:58.510Z,101354.23
2023-02-08T23:07:26.391Z,101351.47
2023-02-08T23:09:54.407Z,101347.65
2023-02-08T23:12:22.374Z,101340.97
2023-02-08T23:14:51.083Z,101345.55
2023-02-08T23:17:19.001Z,101340.46
2023-02-08T23:19:47.144Z,101344.11
2023-02-08T23:22:15.029Z,101338.77
2023-02-08T23:24:42.977Z,101333.13
2023-02-08T23:27:11.472Z,101326.84
2023-02-08T23:29:39.424Z,101323.52
2023-02-08T23:32:07.471Z,101326.65
2023-02-08T23:34:35.421Z,101326.65
2023-02-08T23:37:03.429Z,101326.70
2023-02-08T23:39:34.124Z,101327.55
2023-02-08T23:42:02.081Z,101329.65
2023-02-08T23:44:30.020Z,101325.14
2023-02-08T23:46:57.960Z,101319.27
2023-02-08T23:49:25.875Z,101311.42
2023-02-08T23:51:53.774Z,101311.30
2023-02-08T23:54:21.669Z,101311.20
2023-02-08T23:56:51.940Z,101308.14
2023-02-08T23:59:19.879Z,101306.92
